VAAH

Sardar Vallabhbhai Patel International Airport

Ahmedabad, India
TAF VAAH 251700Z 2518/2700 VRB03KT 4000 HZ FEW025 BECMG 2601/2603 22005KT 3000 HZ SCT020 BECMG 2604/2606 27006KT 5000 HZ BECMG 2612/2614 31007KT 4000 HZ
Issued Valid From Valid To
Sep-25 @ 17:00 UTC
(2 hours ago)
Sep-25 @ 18:00 UTC
(an hour ago)
Sep-27 @ 00:00 UTC
(-1 days ago)
Sep-25 @ 18:00 to Sep-26 @ 01:00
TAF VAAH 251700Z 2518/2700 VRB03KT 4000 HZ FEW025
Wind Visibility Clouds Conditions
Variable at 3 knots 4,007 meters
  • Few at 2,500' AGL
  • Haze
Becoming Sep-26 @ 01:00 to Sep-26 @ 04:00
BECMG 2601/2603 22005KT 3000 HZ SCT020
Wind Visibility Clouds Conditions
220° at 5 knots 2,993 meters
  • Scattered at 2,000' AGL
  • Haze
Becoming Sep-26 @ 04:00 to Sep-26 @ 12:00
BECMG 2604/2606 27006KT 5000 HZ
Wind Visibility Clouds Conditions
270° at 6 knots 5,005 meters
  • Scattered at 2,000' AGL
  • Haze
Becoming Sep-26 @ 12:00 to Sep-27 @ 00:00
BECMG 2612/2614 31007KT 4000 HZ
Wind Visibility Clouds Conditions
310° at 7 knots 4,007 meters
  • Scattered at 2,000' AGL
  • Haze
TAF VAAH 251700Z 2518/2700 VRB03KT 4000 HZ FEW025 BECMG 2601/2603 22005KT 3000 HZ SCT020 BECMG 2604/2606 27006KT 5000 HZ BECMG 2612/2614 31007KT 4000 HZ
Issued Sep-25 @ 17:00 UTC
(2 hours ago)
Valid From Sep-25 @ 18:00 UTC
(an hour ago)
Valid To Sep-27 @ 00:00 UTC
(-1 days ago)
Sep-25 @ 18:00 - Sep-26 @ 01:00
Wind Visibility
Variable at 3 knots 4,007 meters
Clouds
  • Few at 2,500' AGL
Conditions
  • Haze
Becoming Sep-26 @ 01:00 - Sep-26 @ 04:00
Wind Visibility
220° at 5 knots 2,993 meters
Clouds
  • Scattered at 2,000' AGL
Conditions
  • Haze
Becoming Sep-26 @ 04:00 - Sep-26 @ 12:00
Wind Visibility
270° at 6 knots 5,005 meters
Clouds
  • Scattered at 2,000' AGL
Conditions
  • Haze
Becoming Sep-26 @ 12:00 - Sep-27 @ 00:00
Wind Visibility
310° at 7 knots 4,007 meters
Clouds
  • Scattered at 2,000' AGL
Conditions
  • Haze